sensor_id;sensor_type;location;lat;lon;timestamp;temperature;humidity
36416;DHT22;22447;44.530;18.620;2022-08-21T00:01:05;19.50;99.90
36416;DHT22;22447;44.530;18.620;2022-08-21T00:03:32;19.40;99.90
36416;DHT22;22447;44.530;18.620;2022-08-21T00:05:58;19.50;99.90
36416;DHT22;22447;44.530;18.620;2022-08-21T00:08:24;19.40;99.90
36416;DHT22;22447;44.530;18.620;2022-08-21T00:10:51;19.40;99.90
36416;DHT22;22447;44.530;18.620;2022-08-21T00:13:17;19.50;99.90
36416;DHT22;22447;44.530;18.620;2022-08-21T00:15:46;19.40;99.90
36416;DHT22;22447;44.530;18.620;2022-08-21T00:18:12;19.40;99.90
36416;DHT22;22447;44.530;18.620;2022-08-21T00:20:40;19.40;99.90
36416;DHT22;22447;44.530;18.620;2022-08-21T00:23:07;19.40;99.90
36416;DHT22;22447;44.530;18.620;2022-08-21T00:25:33;19.50;99.90
36416;DHT22;22447;44.530;18.620;2022-08-21T00:27:59;19.50;99.90
36416;DHT22;22447;44.530;18.620;2022-08-21T00:30:28;19.50;99.90
36416;DHT22;22447;44.530;18.620;2022-08-21T00:32:55;19.40;99.90
36416;DHT22;22447;44.530;18.620;2022-08-21T00:35:26;19.40;99.90
36416;DHT22;22447;44.530;18.620;2022-08-21T00:37:52;19.30;99.90
36416;DHT22;22447;44.530;18.620;2022-08-21T00:40:21;19.30;99.90
36416;DHT22;22447;44.530;18.620;2022-08-21T00:42:48;19.30;99.90
36416;DHT22;22447;44.530;18.620;2022-08-21T00:45:15;19.30;99.90
36416;DHT22;22447;44.530;18.620;2022-08-21T00:47:41;19.10;99.90
36416;DHT22;22447;44.530;18.620;2022-08-21T00:50:09;19.20;99.90
36416;DHT22;22447;44.530;18.620;2022-08-21T00:52:36;19.10;99.90
36416;DHT22;22447;44.530;18.620;2022-08-21T00:55:04;19.10;99.90
36416;DHT22;22447;44.530;18.620;2022-08-21T00:57:36;19.10;99.90
36416;DHT22;22447;44.530;18.620;2022-08-21T01:00:09;19.00;99.90
36416;DHT22;22447;44.530;18.620;2022-08-21T01:02:35;19.10;99.90
36416;DHT22;22447;44.530;18.620;2022-08-21T01:05:01;19.10;99.90
36416;DHT22;22447;44.530;18.620;2022-08-21T01:07:28;19.10;99.90
36416;DHT22;22447;44.530;18.620;2022-08-21T01:09:53;19.10;99.90
36416;DHT22;22447;44.530;18.620;2022-08-21T01:12:19;19.20;99.90
36416;DHT22;22447;44.530;18.620;2022-08-21T01:14:45;19.20;99.90
36416;DHT22;22447;44.530;18.620;2022-08-21T01:17:13;19.30;99.90
36416;DHT22;22447;44.530;18.620;2022-08-21T01:19:40;19.30;99.90
36416;DHT22;22447;44.530;18.620;2022-08-21T01:22:06;19.30;99.90
36416;DHT22;22447;44.530;18.620;2022-08-21T01:24:32;19.20;99.90
36416;DHT22;22447;44.530;18.620;2022-08-21T01:26:59;19.20;99.90
36416;DHT22;22447;44.530;18.620;2022-08-21T01:29:36;19.30;99.90
36416;DHT22;22447;44.530;18.620;2022-08-21T01:32:07;19.30;99.90
36416;DHT22;22447;44.530;18.620;2022-08-21T01:34:35;19.40;99.90
36416;DHT22;22447;44.530;18.620;2022-08-21T01:37:02;19.40;99.90
36416;DHT22;22447;44.530;18.620;2022-08-21T01:39:29;19.40;99.90
36416;DHT22;22447;44.530;18.620;2022-08-21T01:41:55;19.40;99.90
36416;DHT22;22447;44.530;18.620;2022-08-21T01:44:25;19.40;99.90
36416;DHT22;22447;44.530;18.620;2022-08-21T01:46:51;19.40;99.90
36416;DHT22;22447;44.530;18.620;2022-08-21T01:49:18;19.30;99.90
36416;DHT22;22447;44.530;18.620;2022-08-21T01:51:44;19.30;99.90
36416;DHT22;22447;44.530;18.620;2022-08-21T01:54:11;19.20;99.90
36416;DHT22;22447;44.530;18.620;2022-08-21T01:56:41;19.20;99.90
36416;DHT22;22447;44.530;18.620;2022-08-21T01:59:09;19.20;99.90
36416;DHT22;22447;44.530;18.620;2022-08-21T02:01:35;19.20;99.90
36416;DHT22;22447;44.530;18.620;2022-08-21T02:04:02;19.20;99.90
36416;DHT22;22447;44.530;18.620;2022-08-21T02:06:28;19.10;99.90
36416;DHT22;22447;44.530;18.620;2022-08-21T02:08:54;19.10;99.90
36416;DHT22;22447;44.530;18.620;2022-08-21T02:11:20;19.10;99.90
36416;DHT22;22447;44.530;18.620;2022-08-21T02:13:46;19.10;99.90
36416;DHT22;22447;44.530;18.620;2022-08-21T02:16:12;19.10;99.90
36416;DHT22;22447;44.530;18.620;2022-08-21T02:18:39;19.10;99.90
36416;DHT22;22447;44.530;18.620;2022-08-21T02:21:05;19.10;99.90
36416;DHT22;22447;44.530;18.620;2022-08-21T02:23:32;19.10;99.90
36416;DHT22;22447;44.530;18.620;2022-08-21T02:26:00;19.00;99.90
36416;DHT22;22447;44.530;18.620;2022-08-21T02:28:27;19.10;99.90
36416;DHT22;22447;44.530;18.620;2022-08-21T02:30:53;19.10;99.90
36416;DHT22;22447;44.530;18.620;2022-08-21T02:33:20;19.00;99.90
36416;DHT22;22447;44.530;18.620;2022-08-21T02:35:47;19.00;99.90
36416;DHT22;22447;44.530;18.620;2022-08-21T02:38:17;19.00;99.90
36416;DHT22;22447;44.530;18.620;2022-08-21T02:40:45;19.10;99.90
36416;DHT22;22447;44.530;18.620;2022-08-21T02:43:12;19.10;99.90
36416;DHT22;22447;44.530;18.620;2022-08-21T02:45:39;19.00;99.90
36416;DHT22;22447;44.530;18.620;2022-08-21T02:48:08;19.10;99.90
36416;DHT22;22447;44.530;18.620;2022-08-21T02:50:41;19.10;99.90
36416;DHT22;22447;44.530;18.620;2022-08-21T02:53:09;19.20;99.90
36416;DHT22;22447;44.530;18.620;2022-08-21T02:55:36;19.20;99.90
36416;DHT22;22447;44.530;18.620;2022-08-21T02:58:05;19.10;99.90
36416;DHT22;22447;44.530;18.620;2022-08-21T03:00:33;19.20;99.90
36416;DHT22;22447;44.530;18.620;2022-08-21T03:02:59;19.10;99.90
36416;DHT22;22447;44.530;18.620;2022-08-21T03:05:28;19.20;99.90
36416;DHT22;22447;44.530;18.620;2022-08-21T03:07:54;19.20;99.90
36416;DHT22;22447;44.530;18.620;2022-08-21T03:10:21;19.20;99.90
36416;DHT22;22447;44.530;18.620;2022-08-21T03:12:48;19.20;99.90
36416;DHT22;22447;44.530;18.620;2022-08-21T03:15:18;19.30;99.90
36416;DHT22;22447;44.530;18.620;2022-08-21T03:17:45;19.30;99.90
36416;DHT22;22447;44.530;18.620;2022-08-21T03:20:12;19.30;99.90
36416;DHT22;22447;44.530;18.620;2022-08-21T03:22:38;19.30;99.90
36416;DHT22;22447;44.530;18.620;2022-08-21T03:25:05;19.30;99.90
36416;DHT22;22447;44.530;18.620;2022-08-21T03:27:31;19.30;99.90
36416;DHT22;22447;44.530;18.620;2022-08-21T03:29:59;19.40;99.90
36416;DHT22;22447;44.530;18.620;2022-08-21T03:32:26;19.30;99.90
36416;DHT22;22447;44.530;18.620;2022-08-21T03:34:52;19.30;99.90
36416;DHT22;22447;44.530;18.620;2022-08-21T03:37:18;19.30;99.90
36416;DHT22;22447;44.530;18.620;2022-08-21T03:39:44;19.30;99.90
36416;DHT22;22447;44.530;18.620;2022-08-21T03:42:11;19.30;99.90
36416;DHT22;22447;44.530;18.620;2022-08-21T03:44:37;19.30;99.90
36416;DHT22;22447;44.530;18.620;2022-08-21T03:47:05;19.30;99.90
36416;DHT22;22447;44.530;18.620;2022-08-21T03:49:31;19.30;99.90
36416;DHT22;22447;44.530;18.620;2022-08-21T03:51:57;19.30;99.90
36416;DHT22;22447;44.530;18.620;2022-08-21T03:54:23;19.40;99.90
36416;DHT22;22447;44.530;18.620;2022-08-21T03:56:49;19.30;99.90
36416;DHT22;22447;44.530;18.620;2022-08-21T03:59:15;19.40;99.90
36416;DHT22;22447;44.530;18.620;2022-08-21T04:01:55;19.40;99.90
36416;DHT22;22447;44.530;18.620;2022-08-21T04:04:21;19.40;99.90
36416;DHT22;22447;44.530;18.620;2022-08-21T04:06:47;19.40;99.90
36416;DHT22;22447;44.530;18.620;2022-08-21T04:09:13;19.40;99.90
36416;DHT22;22447;44.530;18.620;2022-08-21T04:11:39;19.40;99.90
36416;DHT22;22447;44.530;18.620;2022-08-21T04:14:05;19.30;99.90
36416;DHT22;22447;44.530;18.620;2022-08-21T04:16:31;19.30;99.90
36416;DHT22;22447;44.530;18.620;2022-08-21T04:18:57;19.30;99.90
36416;DHT22;22447;44.530;18.620;2022-08-21T04:21:23;19.30;99.90
36416;DHT22;22447;44.530;18.620;2022-08-21T04:23:49;19.40;99.90
36416;DHT22;22447;44.530;18.620;2022-08-21T04:26:15;19.40;99.90
36416;DHT22;22447;44.530;18.620;2022-08-21T04:28:41;19.40;99.90
36416;DHT22;22447;44.530;18.620;2022-08-21T04:31:08;19.40;99.90
36416;DHT22;22447;44.530;18.620;2022-08-21T04:33:34;19.40;99.90
36416;DHT22;22447;44.530;18.620;2022-08-21T04:36:00;19.30;99.90
36416;DHT22;22447;44.530;18.620;2022-08-21T04:38:27;19.30;99.90
36416;DHT22;22447;44.530;18.620;2022-08-21T04:40:53;19.30;99.90
36416;DHT22;22447;44.530;18.620;2022-08-21T04:43:20;19.20;99.90
36416;DHT22;22447;44.530;18.620;2022-08-21T04:45:49;19.20;99.90
36416;DHT22;22447;44.530;18.620;2022-08-21T04:48:18;19.30;99.90
36416;DHT22;22447;44.530;18.620;2022-08-21T04:53:39;19.30;99.90
36416;DHT22;22447;44.530;18.620;2022-08-21T04:56:13;19.20;99.90
36416;DHT22;22447;44.530;18.620;2022-08-21T04:58:40;19.30;99.90
36416;DHT22;22447;44.530;18.620;2022-08-21T05:01:12;19.30;99.90
36416;DHT22;22447;44.530;18.620;2022-08-21T05:03:39;19.20;99.90
36416;DHT22;22447;44.530;18.620;2022-08-21T05:06:09;19.30;99.90
36416;DHT22;22447;44.530;18.620;2022-08-21T05:08:37;19.30;99.90
36416;DHT22;22447;44.530;18.620;2022-08-21T05:11:04;19.30;99.90
36416;DHT22;22447;44.530;18.620;2022-08-21T05:13:30;19.30;99.90
36416;DHT22;22447;44.530;18.620;2022-08-21T05:15:56;19.30;99.90
36416;DHT22;22447;44.530;18.620;2022-08-21T05:18:22;19.30;99.90
36416;DHT22;22447;44.530;18.620;2022-08-21T05:20:49;19.30;99.90
36416;DHT22;22447;44.530;18.620;2022-08-21T05:23:16;19.30;99.90
36416;DHT22;22447;44.530;18.620;2022-08-21T05:25:42;19.30;99.90
36416;DHT22;22447;44.530;18.620;2022-08-21T05:28:09;19.30;99.90
36416;DHT22;22447;44.530;18.620;2022-08-21T05:30:37;19.30;99.90
36416;DHT22;22447;44.530;18.620;2022-08-21T05:33:05;19.30;99.90
36416;DHT22;22447;44.530;18.620;2022-08-21T05:35:32;19.30;99.90
36416;DHT22;22447;44.530;18.620;2022-08-21T05:37:59;19.40;99.90
36416;DHT22;22447;44.530;18.620;2022-08-21T05:40:25;19.30;99.90
36416;DHT22;22447;44.530;18.620;2022-08-21T05:42:53;19.30;99.90
36416;DHT22;22447;44.530;18.620;2022-08-21T05:45:19;19.40;99.90
36416;DHT22;22447;44.530;18.620;2022-08-21T05:47:45;19.40;99.90
36416;DHT22;22447;44.530;18.620;2022-08-21T05:50:11;19.40;99.90
36416;DHT22;22447;44.530;18.620;2022-08-21T05:52:37;19.40;99.90
36416;DHT22;22447;44.530;18.620;2022-08-21T05:55:04;19.30;99.90
36416;DHT22;22447;44.530;18.620;2022-08-21T05:57:30;19.30;99.90
36416;DHT22;22447;44.530;18.620;2022-08-21T05:59:56;19.40;99.90
36416;DHT22;22447;44.530;18.620;2022-08-21T06:02:22;19.30;99.90
36416;DHT22;22447;44.530;18.620;2022-08-21T06:04:48;19.30;99.90
36416;DHT22;22447;44.530;18.620;2022-08-21T06:07:14;19.30;99.90
36416;DHT22;22447;44.530;18.620;2022-08-21T06:09:40;19.30;99.90
36416;DHT22;22447;44.530;18.620;2022-08-21T06:12:08;19.30;99.90
36416;DHT22;22447;44.530;18.620;2022-08-21T06:14:35;19.40;99.90
36416;DHT22;22447;44.530;18.620;2022-08-21T06:17:06;19.40;99.90
36416;DHT22;22447;44.530;18.620;2022-08-21T06:19:33;19.40;99.90
36416;DHT22;22447;44.530;18.620;2022-08-21T06:21:59;19.40;99.90
36416;DHT22;22447;44.530;18.620;2022-08-21T06:24:25;19.40;99.90
36416;DHT22;22447;44.530;18.620;2022-08-21T06:26:51;19.40;99.90
36416;DHT22;22447;44.530;18.620;2022-08-21T06:29:17;19.40;99.90
36416;DHT22;22447;44.530;18.620;2022-08-21T06:31:44;19.50;99.90
36416;DHT22;22447;44.530;18.620;2022-08-21T06:34:10;19.50;99.90
36416;DHT22;22447;44.530;18.620;2022-08-21T06:36:36;19.50;99.90
36416;DHT22;22447;44.530;18.620;2022-08-21T06:39:02;19.50;99.90
36416;DHT22;22447;44.530;18.620;2022-08-21T06:41:29;19.50;99.90
36416;DHT22;22447;44.530;18.620;2022-08-21T06:43:55;19.50;99.90
36416;DHT22;22447;44.530;18.620;2022-08-21T06:46:22;19.50;99.90
36416;DHT22;22447;44.530;18.620;2022-08-21T06:48:48;19.50;99.90
36416;DHT22;22447;44.530;18.620;2022-08-21T06:51:15;19.50;99.90
36416;DHT22;22447;44.530;18.620;2022-08-21T06:53:41;19.50;99.90
36416;DHT22;22447;44.530;18.620;2022-08-21T06:56:07;19.50;99.90
36416;DHT22;22447;44.530;18.620;2022-08-21T06:58:34;19.50;99.90
36416;DHT22;22447;44.530;18.620;2022-08-21T07:00:59;19.40;99.90
36416;DHT22;22447;44.530;18.620;2022-08-21T07:03:36;19.50;99.90
36416;DHT22;22447;44.530;18.620;2022-08-21T07:06:03;19.50;99.90
36416;DHT22;22447;44.530;18.620;2022-08-21T07:08:30;19.50;99.90
36416;DHT22;22447;44.530;18.620;2022-08-21T07:10:58;19.40;99.90
36416;DHT22;22447;44.530;18.620;2022-08-21T07:13:24;19.40;99.90
36416;DHT22;22447;44.530;18.620;2022-08-21T07:15:51;19.40;99.90
36416;DHT22;22447;44.530;18.620;2022-08-21T07:18:16;19.50;99.90
36416;DHT22;22447;44.530;18.620;2022-08-21T07:20:43;19.50;99.90
36416;DHT22;22447;44.530;18.620;2022-08-21T07:26:10;19.50;99.90
36416;DHT22;22447;44.530;18.620;2022-08-21T07:28:36;19.50;99.90
36416;DHT22;22447;44.530;18.620;2022-08-21T07:31:03;19.50;99.90
36416;DHT22;22447;44.530;18.620;2022-08-21T07:33:31;19.50;99.90
36416;DHT22;22447;44.530;18.620;2022-08-21T07:35:58;19.50;99.90
36416;DHT22;22447;44.530;18.620;2022-08-21T07:38:24;19.50;99.90
36416;DHT22;22447;44.530;18.620;2022-08-21T07:40:52;19.60;99.90
36416;DHT22;22447;44.530;18.620;2022-08-21T07:43:20;19.50;99.90
36416;DHT22;22447;44.530;18.620;2022-08-21T07:45:47;19.50;99.90
36416;DHT22;22447;44.530;18.620;2022-08-21T07:48:15;19.50;99.90
36416;DHT22;22447;44.530;18.620;2022-08-21T07:50:42;19.50;99.90
36416;DHT22;22447;44.530;18.620;2022-08-21T07:53:08;19.50;99.90
36416;DHT22;22447;44.530;18.620;2022-08-21T07:55:34;19.50;99.90
36416;DHT22;22447;44.530;18.620;2022-08-21T07:58:00;19.50;99.90
36416;DHT22;22447;44.530;18.620;2022-08-21T08:00:28;19.50;99.90
36416;DHT22;22447;44.530;18.620;2022-08-21T08:02:54;19.50;99.90
36416;DHT22;22447;44.530;18.620;2022-08-21T08:05:24;19.50;99.90
36416;DHT22;22447;44.530;18.620;2022-08-21T08:07:50;19.40;99.90
36416;DHT22;22447;44.530;18.620;2022-08-21T08:10:17;19.50;99.90
36416;DHT22;22447;44.530;18.620;2022-08-21T08:12:43;19.50;99.90
36416;DHT22;22447;44.530;18.620;2022-08-21T08:15:14;19.50;99.90
36416;DHT22;22447;44.530;18.620;2022-08-21T08:17:40;19.50;99.90
36416;DHT22;22447;44.530;18.620;2022-08-21T08:20:09;19.50;99.90
36416;DHT22;22447;44.530;18.620;2022-08-21T08:22:36;19.60;99.90
36416;DHT22;22447;44.530;18.620;2022-08-21T08:25:04;19.60;99.90
36416;DHT22;22447;44.530;18.620;2022-08-21T08:27:30;19.50;99.90
36416;DHT22;22447;44.530;18.620;2022-08-21T08:29:56;19.60;99.90
36416;DHT22;22447;44.530;18.620;2022-08-21T08:32:23;19.50;99.90
36416;DHT22;22447;44.530;18.620;2022-08-21T08:34:49;19.50;99.90
36416;DHT22;22447;44.530;18.620;2022-08-21T08:37:18;19.50;99.90
36416;DHT22;22447;44.530;18.620;2022-08-21T08:39:45;19.40;99.90
36416;DHT22;22447;44.530;18.620;2022-08-21T08:42:27;19.40;99.90
36416;DHT22;22447;44.530;18.620;2022-08-21T08:45:05;19.40;99.90
36416;DHT22;22447;44.530;18.620;2022-08-21T08:47:36;19.40;99.90
36416;DHT22;22447;44.530;18.620;2022-08-21T08:52:34;19.40;99.90
36416;DHT22;22447;44.530;18.620;2022-08-21T08:55:11;19.50;99.90
36416;DHT22;22447;44.530;18.620;2022-08-21T08:57:41;19.40;99.90
36416;DHT22;22447;44.530;18.620;2022-08-21T09:00:11;19.40;99.90
36416;DHT22;22447;44.530;18.620;2022-08-21T09:02:39;19.30;99.90
36416;DHT22;22447;44.530;18.620;2022-08-21T09:05:06;19.30;99.90
36416;DHT22;22447;44.530;18.620;2022-08-21T09:10:35;19.30;99.90
36416;DHT22;22447;44.530;18.620;2022-08-21T09:13:21;19.30;99.90
36416;DHT22;22447;44.530;18.620;2022-08-21T09:24:00;19.50;99.90
36416;DHT22;22447;44.530;18.620;2022-08-21T09:26:34;19.40;99.90
36416;DHT22;22447;44.530;18.620;2022-08-21T09:29:02;19.50;99.90
36416;DHT22;22447;44.530;18.620;2022-08-21T09:31:32;19.50;99.90
36416;DHT22;22447;44.530;18.620;2022-08-21T09:34:06;19.50;99.90
36416;DHT22;22447;44.530;18.620;2022-08-21T09:36:43;19.50;99.90
36416;DHT22;22447;44.530;18.620;2022-08-21T09:39:13;19.60;99.90
36416;DHT22;22447;44.530;18.620;2022-08-21T09:41:59;19.60;99.90
36416;DHT22;22447;44.530;18.620;2022-08-21T09:44:32;19.50;99.90
36416;DHT22;22447;44.530;18.620;2022-08-21T09:46:59;19.50;99.90
36416;DHT22;22447;44.530;18.620;2022-08-21T09:49:33;19.50;99.90
36416;DHT22;22447;44.530;18.620;2022-08-21T09:52:01;19.60;99.90
36416;DHT22;22447;44.530;18.620;2022-08-21T09:54:34;19.60;99.90
36416;DHT22;22447;44.530;18.620;2022-08-21T09:59:53;19.60;99.90
36416;DHT22;22447;44.530;18.620;2022-08-21T10:04:57;19.50;99.90
36416;DHT22;22447;44.530;18.620;2022-08-21T10:07:25;19.50;99.90
36416;DHT22;22447;44.530;18.620;2022-08-21T10:10:18;19.50;99.90
36416;DHT22;22447;44.530;18.620;2022-08-21T10:15:24;19.60;99.90
36416;DHT22;22447;44.530;18.620;2022-08-21T10:35:08;19.90;99.90
36416;DHT22;22447;44.530;18.620;2022-08-21T10:41:08;19.80;99.90
36416;DHT22;22447;44.530;18.620;2022-08-21T10:44:08;19.80;99.90
36416;DHT22;22447;44.530;18.620;2022-08-21T10:46:52;19.90;99.90
36416;DHT22;22447;44.530;18.620;2022-08-21T10:54:59;19.90;99.90
36416;DHT22;22447;44.530;18.620;2022-08-21T10:57:54;19.90;99.90
36416;DHT22;22447;44.530;18.620;2022-08-21T11:00:22;19.90;99.90
36416;DHT22;22447;44.530;18.620;2022-08-21T11:03:39;19.90;99.90
36416;DHT22;22447;44.530;18.620;2022-08-21T11:06:15;19.90;99.90
36416;DHT22;22447;44.530;18.620;2022-08-21T11:08:48;19.90;99.90
36416;DHT22;22447;44.530;18.620;2022-08-21T11:14:03;19.90;99.90
36416;DHT22;22447;44.530;18.620;2022-08-21T11:16:46;19.90;99.90
36416;DHT22;22447;44.530;18.620;2022-08-21T11:27:46;20.00;99.90
36416;DHT22;22447;44.530;18.620;2022-08-21T11:30:14;20.00;99.90
36416;DHT22;22447;44.530;18.620;2022-08-21T11:45:41;20.00;99.90
36416;DHT22;22447;44.530;18.620;2022-08-21T11:50:49;20.00;99.90
36416;DHT22;22447;44.530;18.620;2022-08-21T11:53:21;20.10;99.90
36416;DHT22;22447;44.530;18.620;2022-08-21T11:56:00;20.10;99.90
36416;DHT22;22447;44.530;18.620;2022-08-21T11:58:40;19.90;99.90
36416;DHT22;22447;44.530;18.620;2022-08-21T12:03:41;20.00;99.90
36416;DHT22;22447;44.530;18.620;2022-08-21T12:06:11;19.90;99.90
36416;DHT22;22447;44.530;18.620;2022-08-21T12:08:40;20.00;99.90
36416;DHT22;22447;44.530;18.620;2022-08-21T12:16:41;20.10;99.90
36416;DHT22;22447;44.530;18.620;2022-08-21T12:19:13;20.00;99.90
36416;DHT22;22447;44.530;18.620;2022-08-21T12:24:50;20.10;99.90
36416;DHT22;22447;44.530;18.620;2022-08-21T12:29:53;20.10;99.90
36416;DHT22;22447;44.530;18.620;2022-08-21T12:32:29;20.00;99.90
36416;DHT22;22447;44.530;18.620;2022-08-21T12:35:02;20.10;99.90
36416;DHT22;22447;44.530;18.620;2022-08-21T12:38:07;19.90;99.90
36416;DHT22;22447;44.530;18.620;2022-08-21T12:40:42;19.90;99.90
36416;DHT22;22447;44.530;18.620;2022-08-21T12:43:23;19.90;99.90
36416;DHT22;22447;44.530;18.620;2022-08-21T12:45:50;19.90;99.90
36416;DHT22;22447;44.530;18.620;2022-08-21T12:48:43;19.90;99.90
36416;DHT22;22447;44.530;18.620;2022-08-21T12:54:30;19.90;99.90
36416;DHT22;22447;44.530;18.620;2022-08-21T12:57:03;20.00;99.90
36416;DHT22;22447;44.530;18.620;2022-08-21T12:59:31;20.20;99.90
36416;DHT22;22447;44.530;18.620;2022-08-21T13:02:00;20.30;99.90
36416;DHT22;22447;44.530;18.620;2022-08-21T13:04:36;20.10;99.90
36416;DHT22;22447;44.530;18.620;2022-08-21T13:07:11;20.20;99.90
36416;DHT22;22447;44.530;18.620;2022-08-21T13:10:04;20.30;99.90
36416;DHT22;22447;44.530;18.620;2022-08-21T13:12:31;20.20;99.90
36416;DHT22;22447;44.530;18.620;2022-08-21T13:15:02;20.40;99.90
36416;DHT22;22447;44.530;18.620;2022-08-21T13:17:32;20.30;99.90
36416;DHT22;22447;44.530;18.620;2022-08-21T13:20:06;20.20;99.90
36416;DHT22;22447;44.530;18.620;2022-08-21T13:22:41;20.30;99.90
36416;DHT22;22447;44.530;18.620;2022-08-21T13:25:12;20.40;99.90
36416;DHT22;22447;44.530;18.620;2022-08-21T13:27:39;20.40;99.90
36416;DHT22;22447;44.530;18.620;2022-08-21T13:30:19;20.40;99.90
36416;DHT22;22447;44.530;18.620;2022-08-21T13:32:49;20.30;99.90
36416;DHT22;22447;44.530;18.620;2022-08-21T13:35:23;20.20;99.90
36416;DHT22;22447;44.530;18.620;2022-08-21T13:37:51;20.30;99.90
36416;DHT22;22447;44.530;18.620;2022-08-21T13:40:57;20.30;99.90
36416;DHT22;22447;44.530;18.620;2022-08-21T13:43:31;20.30;99.90
36416;DHT22;22447;44.530;18.620;2022-08-21T13:45:58;20.30;99.90
36416;DHT22;22447;44.530;18.620;2022-08-21T13:48:28;20.30;99.90
36416;DHT22;22447;44.530;18.620;2022-08-21T13:50:56;20.30;99.90
36416;DHT22;22447;44.530;18.620;2022-08-21T13:56:07;20.20;99.90
36416;DHT22;22447;44.530;18.620;2022-08-21T13:58:43;20.20;99.90
36416;DHT22;22447;44.530;18.620;2022-08-21T14:01:30;19.90;99.90
36416;DHT22;22447;44.530;18.620;2022-08-21T14:04:06;19.90;99.90
36416;DHT22;22447;44.530;18.620;2022-08-21T14:06:35;20.00;99.90
36416;DHT22;22447;44.530;18.620;2022-08-21T14:09:14;20.10;99.90
36416;DHT22;22447;44.530;18.620;2022-08-21T14:11:47;20.00;99.90
36416;DHT22;22447;44.530;18.620;2022-08-21T14:14:22;19.90;99.90
36416;DHT22;22447;44.530;18.620;2022-08-21T14:16:59;20.00;99.90
36416;DHT22;22447;44.530;18.620;2022-08-21T14:19:37;20.10;99.90
36416;DHT22;22447;44.530;18.620;2022-08-21T14:27:29;20.00;99.90
36416;DHT22;22447;44.530;18.620;2022-08-21T14:30:33;20.20;99.90
36416;DHT22;22447;44.530;18.620;2022-08-21T14:33:01;20.20;99.90
36416;DHT22;22447;44.530;18.620;2022-08-21T14:35:27;20.20;99.90
36416;DHT22;22447;44.530;18.620;2022-08-21T14:37:53;20.10;99.90
36416;DHT22;22447;44.530;18.620;2022-08-21T14:40:22;20.10;99.90
36416;DHT22;22447;44.530;18.620;2022-08-21T14:42:48;20.00;99.90
36416;DHT22;22447;44.530;18.620;2022-08-21T14:45:19;19.80;99.90
36416;DHT22;22447;44.530;18.620;2022-08-21T14:47:47;19.80;99.90
36416;DHT22;22447;44.530;18.620;2022-08-21T14:50:13;19.70;99.90
36416;DHT22;22447;44.530;18.620;2022-08-21T14:52:40;19.70;99.90
36416;DHT22;22447;44.530;18.620;2022-08-21T14:55:07;19.80;99.90
36416;DHT22;22447;44.530;18.620;2022-08-21T14:57:36;19.80;99.90
36416;DHT22;22447;44.530;18.620;2022-08-21T15:00:04;19.80;99.90
36416;DHT22;22447;44.530;18.620;2022-08-21T15:02:30;19.70;99.90
36416;DHT22;22447;44.530;18.620;2022-08-21T15:04:56;19.70;99.90
36416;DHT22;22447;44.530;18.620;2022-08-21T15:07:22;19.80;99.90
36416;DHT22;22447;44.530;18.620;2022-08-21T15:09:48;19.70;99.90
36416;DHT22;22447;44.530;18.620;2022-08-21T15:12:14;19.80;99.90
36416;DHT22;22447;44.530;18.620;2022-08-21T15:14:41;19.90;99.90
36416;DHT22;22447;44.530;18.620;2022-08-21T15:17:08;19.90;99.90
36416;DHT22;22447;44.530;18.620;2022-08-21T15:19:35;20.00;99.90
36416;DHT22;22447;44.530;18.620;2022-08-21T15:22:01;20.10;99.90
36416;DHT22;22447;44.530;18.620;2022-08-21T15:24:27;20.10;99.90
36416;DHT22;22447;44.530;18.620;2022-08-21T15:26:54;20.00;99.90
36416;DHT22;22447;44.530;18.620;2022-08-21T15:29:20;20.10;99.90
36416;DHT22;22447;44.530;18.620;2022-08-21T15:32:22;20.10;99.90
36416;DHT22;22447;44.530;18.620;2022-08-21T15:34:50;20.20;99.90
36416;DHT22;22447;44.530;18.620;2022-08-21T15:37:16;20.30;99.90
36416;DHT22;22447;44.530;18.620;2022-08-21T15:39:42;20.30;99.90
36416;DHT22;22447;44.530;18.620;2022-08-21T15:42:09;20.30;99.90
36416;DHT22;22447;44.530;18.620;2022-08-21T15:44:36;20.40;99.90
36416;DHT22;22447;44.530;18.620;2022-08-21T15:47:11;20.40;99.90
36416;DHT22;22447;44.530;18.620;2022-08-21T15:49:37;20.30;99.90
36416;DHT22;22447;44.530;18.620;2022-08-21T15:52:03;20.30;99.90
36416;DHT22;22447;44.530;18.620;2022-08-21T15:54:29;20.30;99.90
36416;DHT22;22447;44.530;18.620;2022-08-21T15:56:55;20.20;99.90
36416;DHT22;22447;44.530;18.620;2022-08-21T15:59:22;20.20;99.90
36416;DHT22;22447;44.530;18.620;2022-08-21T16:01:52;20.20;99.90
36416;DHT22;22447;44.530;18.620;2022-08-21T16:04:26;20.20;99.90
36416;DHT22;22447;44.530;18.620;2022-08-21T16:06:53;20.20;99.90
36416;DHT22;22447;44.530;18.620;2022-08-21T16:09:19;20.20;99.90
36416;DHT22;22447;44.530;18.620;2022-08-21T16:11:46;20.20;99.90
36416;DHT22;22447;44.530;18.620;2022-08-21T16:14:14;20.10;99.90
36416;DHT22;22447;44.530;18.620;2022-08-21T16:16:40;20.00;99.90
36416;DHT22;22447;44.530;18.620;2022-08-21T16:19:07;20.10;99.90
36416;DHT22;22447;44.530;18.620;2022-08-21T16:21:34;20.00;99.90
36416;DHT22;22447;44.530;18.620;2022-08-21T16:24:00;20.10;99.90
36416;DHT22;22447;44.530;18.620;2022-08-21T16:26:26;20.20;99.90
36416;DHT22;22447;44.530;18.620;2022-08-21T16:28:55;20.20;99.90
36416;DHT22;22447;44.530;18.620;2022-08-21T16:31:23;20.20;99.90
36416;DHT22;22447;44.530;18.620;2022-08-21T16:33:52;20.20;99.90
36416;DHT22;22447;44.530;18.620;2022-08-21T16:36:19;20.10;99.90
36416;DHT22;22447;44.530;18.620;2022-08-21T16:38:45;20.00;99.90
36416;DHT22;22447;44.530;18.620;2022-08-21T16:41:16;20.00;99.90
36416;DHT22;22447;44.530;18.620;2022-08-21T16:43:44;20.00;99.90
36416;DHT22;22447;44.530;18.620;2022-08-21T16:46:13;20.00;99.90
36416;DHT22;22447;44.530;18.620;2022-08-21T16:48:41;20.00;99.90
36416;DHT22;22447;44.530;18.620;2022-08-21T16:51:10;20.00;99.90
36416;DHT22;22447;44.530;18.620;2022-08-21T16:53:36;20.00;99.90
36416;DHT22;22447;44.530;18.620;2022-08-21T16:56:03;20.10;99.90
36416;DHT22;22447;44.530;18.620;2022-08-21T16:58:32;20.10;99.90
36416;DHT22;22447;44.530;18.620;2022-08-21T17:00:58;20.10;99.90
36416;DHT22;22447;44.530;18.620;2022-08-21T17:03:40;20.10;99.90
36416;DHT22;22447;44.530;18.620;2022-08-21T17:06:07;20.00;99.90
36416;DHT22;22447;44.530;18.620;2022-08-21T17:08:34;20.00;99.90
36416;DHT22;22447;44.530;18.620;2022-08-21T17:11:01;20.00;99.90
36416;DHT22;22447;44.530;18.620;2022-08-21T17:13:29;19.90;99.90